Latest Weather Observations for Yulara

IDD60801

Issued at 3:31 pm CST Tuesday 21 April 2015 (issued every 30 minutes, with the page automatically refreshed every 10 minutes)

About weather observations | Map of weather stations | Latest weather observations for NT | Other Formats
Station Details ID: 015635 Name: YULARA AIRPORT Lat: -25.19 Lon: 130.97 Height: 492.0 m
Data from the previous 72 hours. | See also: Recent months at Yulara
Date/Time
CST
Temp
°C
App
Temp
°C
Dew
Point
Rel
Hum
%
Delta-T
°C
Wind Press
QNH
hPa
Press
MSL
hPa
Rain
since 9 am
mm
Dir
 
Spd
km/h
Gust
km/h
Spd
kts
Gust
kts
21/03:30pm 21.5 13.2 -9.1 12 11.7 ESE 28 39 15 21 1021.9 1019.6 0.0
21/03:00pm 21.4 13.6 -8.1 13 11.5 ESE 26 43 14 23 1022.3 1020.1 0.0
21/02:30pm 21.1 13.2 -8.4 13 11.4 ESE 26 41 14 22 1022.7 1020.5 0.0
21/02:00pm 20.8 13.4 -7.6 14 11.2 ESE 24 35 13 19 1023.3 1021.0 0.0
21/01:30pm 19.8 11.6 -7.5 15 10.6 E 28 39 15 21 1024.2 1022.0 0.0
21/01:00pm 19.3 11.2 -6.3 17 10.2 E 28 41 15 22 1024.8 1022.6 0.0
21/12:30pm 18.7 10.3 -6.1 18 9.8 E 30 41 16 22 1025.6 1023.4 0.0
21/12:00pm 18.6 10.2 -6.2 18 9.7 E 30 41 16 22 1026.4 1024.2 0.0
21/11:30am 17.6 8.9 -5.6 20 9.1 E 32 43 17 23 1026.9 1024.7 0.0
21/11:00am 16.0 6.7 -5.1 23 8.3 E 35 46 19 25 1027.1 1024.9 0.0
21/10:30am 15.4 5.4 -4.5 25 7.8 E 39 48 21 26 1027.6 1025.4 0.0
21/10:00am 14.8 3.9 -4.0 27 7.5 E 44 56 24 30 1027.8 1025.6 0.0
21/09:40am 14.2 5.1 -4.0 28 7.1 E 35 57 19 31 1028.2 1026.0 0.0
21/09:30am 14.2 5.1 -3.6 29 7.0 E 35 48 19 26 1028.0 1025.8 0.0
21/09:00am 12.9 3.8 -3.4 32 6.4 E 35 48 19 26 1027.8 1025.6 0.0
21/08:30am 12.2 4.1 -2.8 35 5.9 E 30 39 16 21 1028.1 1025.9 0.0
21/08:00am 11.5 4.6 -2.7 37 5.6 E 24 35 13 19 1027.8 1025.6 0.0
21/07:30am 11.0 4.8 -2.8 38 5.4 ESE 20 30 11 16 1027.7 1025.5 0.0
21/07:00am 10.8 4.8 -2.9 38 5.4 ESE 19 24 10 13 1027.7 1025.5 0.0
21/06:30am 11.0 4.8 -3.5 36 5.6 ESE 20 30 11 16 1027.6 1025.4 0.0
21/06:00am 11.2 5.1 -3.7 35 5.7 ESE 19 24 10 13 1027.1 1024.9 0.0
21/05:30am 11.7 5.4 -3.6 34 5.9 ESE 20 28 11 15 1026.8 1024.6 0.0
21/05:00am 12.1 5.1 -3.7 33 6.1 E 24 33 13 18 1026.7 1024.5 0.0
21/04:30am 12.4 6.1 -3.8 32 6.3 E 20 30 11 16 1026.6 1024.4 0.0
21/04:00am 12.7 6.5 -3.5 32 6.4 E 20 30 11 16 1026.7 1024.5 0.0
21/03:30am 13.1 6.5 -3.6 31 6.5 E 22 32 12 17 1026.6 1024.4 0.0
21/03:00am 13.5 6.5 -3.7 30 6.7 E 24 35 13 19 1026.6 1024.4 0.0
21/02:30am 13.8 7.6 -3.5 30 6.8 E 20 26 11 14 1026.9 1024.7 0.0
21/02:00am 14.0 7.4 -3.7 29 7.0 E 22 32 12 17 1027.2 1025.0 0.0
21/01:30am 14.3 8.2 -3.5 29 7.1 E 19 32 10 17 1027.3 1025.2 0.0
21/01:00am 14.7 8.6 -3.6 28 7.3 ESE 19 24 10 13 1027.6 1025.4 0.0
21/12:30am 15.2 7.4 -3.6 27 7.5 E 28 37 15 20 1027.3 1025.2 0.0
21/12:00am 15.6 8.6 -3.3 27 7.6 ESE 24 32 13 17 1027.6 1025.4 0.0
 
Date/Time
CST
Temp
°C
App
Temp
°C
Dew
Point
Rel
Hum
%
Delta-T
°C
Wind Press
QNH
hPa
Press
MSL
hPa
Rain
since 9 am
mm
Dir
 
Spd
km/h
Gust
km/h
Spd
kts
Gust
kts
20/11:30pm 15.9 9.3 -3.6 26 7.9 ESE 22 32 12 17 1027.6 1025.4 0.0
20/11:00pm 15.7 9.6 -3.7 26 7.8 ESE 19 26 10 14 1027.8 1025.6 0.0
20/10:30pm 15.3 10.3 -4.1 26 7.7 ESE 13 19 7 10 1028.0 1025.8 0.0
20/10:00pm 15.7 10.6 -4.8 24 8.1 ESE 13 17 7 9 1027.8 1025.6 0.0
20/09:30pm 16.7 10.9 -4.5 23 8.4 E 17 26 9 14 1027.4 1025.3 0.0
20/09:00pm 17.3 11.1 -5.2 21 8.9 ESE 19 24 10 13 1027.3 1025.2 0.0
20/08:30pm 17.6 11.2 -5.0 21 9.0 ESE 20 28 11 15 1027.0 1024.8 0.0
20/08:00pm 18.0 11.8 -4.6 21 9.2 ESE 19 24 10 13 1026.6 1024.4 0.0
20/07:30pm 18.3 12.5 -5.0 20 9.3 ESE 17 24 9 13 1026.3 1024.1 0.0
20/07:00pm 18.8 11.2 -5.3 19 9.7 E 26 37 14 20 1025.9 1023.7 0.0
20/06:30pm 19.0 11.8 -5.1 19 9.7 E 24 33 13 18 1025.9 1023.7 0.0
20/06:00pm 19.4 11.9 -4.8 19 9.9 E 26 37 14 20 1025.6 1023.4 0.0
20/05:30pm 19.9 11.7 -4.4 19 10.0 E 30 41 16 22 1025.2 1023.0 0.0
20/05:00pm 20.3 12.5 -4.0 19 10.2 ESE 28 37 15 20 1025.5 1023.2 0.0
20/04:30pm 20.8 12.3 -3.6 19 10.3 E 32 43 17 23 1025.3 1023.1 0.0
20/04:00pm 20.8 13.1 -3.0 20 10.2 E 28 39 15 21 1025.5 1023.2 0.0
20/03:30pm 20.7 12.3 -2.4 21 10.0 E 32 43 17 23 1025.6 1023.4 0.0
20/03:00pm 20.3 11.7 -2.7 21 9.9 E 33 46 18 25 1025.9 1023.7 0.0
20/02:30pm 20.2 12.3 -1.6 23 9.5 E 30 43 16 23 1026.1 1023.9 0.0
20/02:00pm 19.5 11.0 -1.6 24 9.2 E 33 44 18 24 1026.4 1024.2 0.0
20/01:44pm 19.5 11.6 -1.6 24 9.2 E 30 48 16 26 1026.7 1024.5 0.0
20/01:30pm 19.4 11.0 -1.1 25 9.0 E 33 46 18 25 1026.7 1024.5 0.0
20/01:00pm 19.0 10.7 -0.4 27 8.7 E 33 50 18 27 1027.2 1025.0 0.0
20/12:49pm 19.5 10.8 -0.5 26 8.9 E 35 54 19 29 1027.6 1025.4 0.0
20/12:30pm 18.7 10.4 -0.2 28 8.4 ESE 33 46 18 25 1028.0 1025.8 0.0
20/12:00pm 17.8 8.9 0.5 31 7.7 E 37 50 20 27 1028.4 1026.2 0.0
20/11:35am 17.8 9.0 1.3 33 7.5 E 37 56 20 30 1028.8 1026.6 0.0
20/11:30am 18.5 9.4 1.9 33 7.7 E 39 50 21 27 1028.8 1026.6 0.0
20/11:03am 16.5 7.9 2.5 39 6.5 ESE 37 56 20 30 1029.1 1027.0 0.0
20/11:00am 16.6 7.6 2.2 38 6.6 ESE 39 56 21 30 1029.1 1027.0 0.0
20/10:33am 16.1 7.9 2.5 40 6.3 E 35 54 19 29 1029.3 1027.2 0.0
20/10:30am 16.1 7.5 2.5 40 6.2 ESE 37 54 20 29 1029.3 1027.2 0.0
20/10:00am 16.4 6.6 2.4 39 6.5 E 43 57 23 31 1029.4 1027.3 0.0
20/09:30am 15.7 7.4 2.2 40 6.1 E 35 44 19 24 1029.8 1027.6 0.0
20/09:00am 14.6 6.2 1.8 42 5.7 ESE 35 48 19 26 1029.8 1027.6 0.0
20/08:30am 13.5 7.1 1.2 43 5.4 ESE 24 33 13 18 1029.8 1027.6 0.0
20/08:00am 12.7 7.0 0.8 44 5.2 ESE 20 30 11 16 1029.5 1027.4 0.0
20/07:30am 12.5 6.4 0.6 44 5.1 ESE 22 35 12 19 1029.0 1026.8 0.0
20/07:00am 12.6 6.8 0.0 42 5.4 ESE 20 30 11 16 1029.0 1026.8 0.0
20/06:30am 13.0 6.8 -0.3 40 5.6 ESE 22 32 12 17 1028.7 1026.5 0.0
20/06:00am 13.4 7.2 -0.3 39 5.8 ESE 22 35 12 19 1028.4 1026.2 0.0
20/05:30am 13.7 7.4 -0.7 37 6.0 ESE 22 33 12 18 1028.1 1025.9 0.0
20/05:00am 14.1 7.5 -0.4 37 6.2 ESE 24 33 13 18 1027.7 1025.5 0.0
20/04:30am 14.5 7.2 0.0 37 6.2 ESE 28 41 15 22 1027.6 1025.4 0.0
20/04:00am 14.8 8.4 1.0 39 6.1 ESE 24 39 13 21 1027.7 1025.5 0.0
20/03:30am 15.3 8.6 1.4 39 6.2 ESE 26 37 14 20 1027.6 1025.4 0.0
20/03:00am 15.7 9.6 2.5 41 6.0 SE 24 35 13 19 1027.6 1025.4 0.0
20/02:30am 16.2 9.8 3.3 42 6.0 ESE 26 37 14 20 1027.4 1025.3 0.0
20/02:00am 16.6 10.4 4.3 44 5.9 SE 26 39 14 21 1027.6 1025.4 0.0
20/01:30am 16.8 11.1 5.1 46 5.7 SE 24 39 13 21 1027.6 1025.4 0.0
20/01:00am 17.2 11.3 5.8 47 5.7 SE 26 37 14 20 1028.0 1025.8 0.0
20/12:30am 17.5 12.5 6.4 48 5.6 SE 22 33 12 18 1028.0 1025.8 0.0
20/12:00am 17.8 13.2 6.7 48 5.6 ESE 20 30 11 16 1028.1 1025.9 0.0
 
Date/Time
CST
Temp
°C
App
Temp
°C
Dew
Point
Rel
Hum
%
Delta-T
°C
Wind Press
QNH
hPa
Press
MSL
hPa
Rain
since 9 am
mm
Dir
 
Spd
km/h
Gust
km/h
Spd
kts
Gust
kts
19/11:30pm 18.2 12.5 6.7 47 5.8 ESE 26 35 14 19 1028.4 1026.2 0.0
19/11:00pm 18.3 12.9 6.5 46 6.0 ESE 24 37 13 20 1028.5 1026.3 0.0
19/10:30pm 18.5 12.7 6.4 45 6.1 ESE 26 39 14 21 1028.5 1026.3 0.0
19/10:00pm 18.7 13.3 6.5 45 6.2 ESE 24 35 13 19 1028.4 1026.2 0.0
19/09:30pm 19.0 13.6 6.5 44 6.4 ESE 24 37 13 20 1028.2 1026.0 0.0
19/09:00pm 19.5 13.4 6.6 43 6.6 ESE 28 41 15 22 1028.1 1025.9 0.0
19/08:42pm 19.8 12.9 6.5 42 6.8 ESE 32 50 17 27 1027.8 1025.6 0.0
19/08:30pm 20.3 14.6 6.6 41 7.0 ESE 26 39 14 21 1027.4 1025.3 0.0
19/08:00pm 21.2 16.5 5.1 35 8.1 ESE 19 30 10 16 1027.0 1024.8 0.0
19/07:30pm 21.3 16.8 4.0 32 8.5 ESE 17 22 9 12 1026.4 1024.2 0.0
19/07:00pm 21.5 16.5 3.7 31 8.8 SE 19 30 10 16 1026.0 1023.8 0.0
19/06:30pm 22.1 17.0 3.3 29 9.2 ESE 19 28 10 15 1025.9 1023.7 0.0
19/06:00pm 22.5 16.5 3.6 29 9.3 ESE 24 35 13 19 1025.5 1023.2 0.0
19/05:30pm 22.7 16.7 3.3 28 9.5 ESE 24 35 13 19 1025.1 1022.9 0.0
19/05:00pm 22.9 16.5 3.4 28 9.7 ESE 26 39 14 21 1025.1 1022.9 0.0
19/04:30pm 23.3 16.5 3.3 27 9.9 ESE 28 37 15 20 1024.6 1022.4 0.0
19/04:00pm 23.4 17.5 3.9 28 9.8 ESE 24 33 13 18 1024.9 1022.7 0.0
19/03:30pm 23.2 17.3 3.7 28 9.7 ESE 24 37 13 20 1025.1 1022.9 0.0
19/03:00pm 23.2 17.2 3.2 27 9.8 ESE 24 37 13 20 1025.0 1022.8 0.0
19/02:30pm 23.0 17.5 4.0 29 9.5 ESE 22 33 12 18 1025.1 1022.9 0.0
19/02:00pm 23.0 16.6 5.0 31 9.2 ESE 28 39 15 21 1025.3 1023.1 0.0
19/01:30pm 22.9 16.9 5.3 32 9.0 ESE 26 37 14 20 1025.6 1023.4 0.0
19/01:00pm 22.5 16.1 5.4 33 8.8 ESE 28 37 15 20 1026.3 1024.1 0.0
19/12:30pm 22.0 15.8 6.3 36 8.1 ESE 28 37 15 20 1026.4 1024.2 0.0
19/12:00pm 21.7 15.6 6.4 37 7.9 E 28 41 15 22 1026.6 1024.4 0.0
19/11:30am 20.9 14.4 6.4 39 7.5 ESE 30 44 16 24 1027.0 1024.8 0.0
19/11:00am 20.4 13.9 6.4 40 7.2 ESE 30 41 16 22 1027.3 1025.2 0.0
19/10:30am 19.2 13.0 6.3 43 6.5 ESE 28 43 15 23 1027.7 1025.5 0.0
19/10:00am 18.6 11.7 6.4 45 6.2 ESE 32 46 17 25 1027.9 1025.7 0.0
19/09:30am 18.2 11.1 6.4 46 6.0 ESE 33 48 18 26 1027.6 1025.4 0.0
19/09:00am 17.7 11.2 6.6 48 5.6 ESE 30 43 16 23 1027.7 1025.5 0.0
19/08:30am 17.1 11.6 6.0 48 5.5 SE 24 35 13 19 1027.0 1024.8 0.0
19/08:00am 16.1 11.3 5.7 50 5.1 SE 20 30 11 16 1026.5 1024.3 0.0
19/07:30am 14.5 10.5 5.0 53 4.5 SE 15 20 8 11 1026.1 1023.9 0.0
19/07:00am 14.1 10.4 4.4 52 4.6 SSE 13 17 7 9 1025.7 1023.5 0.0
19/06:30am 14.6 10.1 4.0 49 5.0 SE 17 20 9 11 1025.2 1023.0 0.0
19/06:00am 15.0 10.5 4.1 48 5.1 SE 17 20 9 11 1024.9 1022.7 0.0
19/05:30am 15.2 10.3 4.3 48 5.2 SE 19 28 10 15 1024.4 1022.2 0.0
19/05:00am 15.1 10.3 4.8 50 5.0 SE 19 24 10 13 1024.1 1021.9 0.0
19/04:30am 15.2 11.7 5.4 52 4.8 SSE 13 15 7 8 1024.0 1021.8 0.0
19/04:00am 16.1 12.3 5.7 50 5.1 SE 15 19 8 10 1024.0 1021.8 0.0
19/03:30am 17.0 12.8 5.9 48 5.5 SE 17 22 9 12 1023.9 1021.7 0.0
19/03:00am 17.3 13.2 6.2 48 5.6 SE 17 20 9 11 1023.9 1021.7 0.0
19/02:30am 18.0 13.9 6.2 46 5.9 SE 17 22 9 12 1023.8 1021.6 0.0
19/02:00am 18.3 14.3 6.8 47 5.9 SE 17 22 9 12 1024.1 1021.9 0.0
19/01:30am 18.7 14.4 7.2 47 5.9 SE 19 26 10 14 1024.1 1021.9 0.0
19/01:00am 19.0 14.8 7.4 47 6.0 SE 19 24 10 13 1024.2 1022.0 0.0
19/12:30am 19.3 15.2 7.7 47 6.1 SE 19 24 10 13 1024.1 1021.9 0.0
19/12:00am 19.7 15.4 7.8 46 6.2 SE 20 24 11 13 1024.2 1022.0 0.0
 
Date/Time
CST
Temp
°C
App
Temp
°C
Dew
Point
Rel
Hum
%
Delta-T
°C
Wind Press
QNH
hPa
Press
MSL
hPa
Rain
since 9 am
mm
Dir
 
Spd
km/h
Gust
km/h
Spd
kts
Gust
kts
18/11:30pm 19.8 16.0 7.5 45 6.4 SE 17 22 9 12 1024.3 1022.1 0.0
18/11:00pm 20.2 16.3 7.2 43 6.8 SE 17 24 9 13 1024.3 1022.1 0.0
18/10:30pm 20.5 16.9 6.8 41 7.1 SE 15 20 8 11 1024.0 1021.8 0.0
18/10:00pm 21.1 16.6 6.2 38 7.7 SE 19 24 10 13 1023.8 1021.6 0.0
18/09:30pm 21.7 17.6 6.0 36 8.1 SE 17 22 9 12 1023.5 1021.2 0.0
18/09:00pm 22.0 18.1 5.4 34 8.4 SE 15 24 8 13 1023.0 1020.8 0.0
18/08:30pm 22.3 18.5 5.7 34 8.5 ESE 15 20 8 11 1022.6 1020.4 0.0
18/08:00pm 22.1 18.4 4.6 32 8.8 SE 13 19 7 10 1022.1 1019.9 0.0
18/07:30pm 22.8 19.0 3.9 29 9.4 ESE 13 17 7 9 1021.6 1019.3 0.0
18/07:00pm 23.7 19.2 4.1 28 9.9 ESE 17 22 9 12 1021.3 1019.0 0.0
18/06:30pm 24.6 20.1 4.4 27 10.3 ESE 17 24 9 13 1020.4 1018.2 0.0
18/06:00pm 25.6 20.8 4.7 26 10.8 ESE 19 28 10 15 1020.1 1017.9 0.0
18/05:30pm 25.9 20.6 4.9 26 10.9 E 22 30 12 16 1019.8 1017.5 0.0
18/05:00pm 26.2 21.9 5.2 26 11.0 E 17 26 9 14 1019.8 1017.5 0.0
18/04:30pm 26.3 21.4 5.3 26 11.0 E 20 32 11 17 1019.8 1017.5 0.0
18/04:00pm 26.5 21.8 6.0 27 10.9 E 20 24 11 13 1019.4 1017.1 0.0

Other Formats:

Comma delimited format used in spreadsheet applications
http://www.bom.gov.au/fwo/IDD60801/IDD60801.94462.axf

JavaScript Object Notation format (JSON) in row-major order
http://www.bom.gov.au/fwo/IDD60801/IDD60801.94462.json